Airfield :
LOGIN :

Register | Disclaimer

   EN    FR    IT 

 










Legend :    VFR   Marginal VFR   IFR   Intensive IFR   Very Intensive IFR
Visi :
Ceiling :
>= 8 km
>= 3000ft
5 to 8 km
1000 to 3000 ft
1500m to 5 km
500 to 1000 ft
800 to 1500m
200 to 500 ft
< 800m
< 200 ft
Symbols :   Thunderstorms  Fog  Heavy snow  Heavy precipitations  Wind > 20 kt
SIGMETs :     Misc.  Thunderstorms  Icing  Turbulence  Mountain Waves  Volcanic Ashes






- Airport Elevation : 408 ft
- IATA code : SOB


LHSM - Sarmellek Balaton

CURRENT METAR :
  • 212315Z AUTO 17006KT CAVOK 04/00 Q1017

EXPIRED METARs :
  • 212245Z AUTO 18006KT CAVOK 04/00 Q1018
  • 212215Z AUTO 17006KT CAVOK 04/01 Q1018
  • 212145Z AUTO 18007KT CAVOK 05/01 Q1018
  • 212115Z AUTO 19007KT CAVOK 07/02 Q1019
  • 212045Z AUTO 20006KT CAVOK 07/02 Q1019
  • 212015Z AUTO 18006KT CAVOK 07/01 Q1019
  • 211945Z AUTO 16006KT CAVOK 07/01 Q1019
  • 211915Z AUTO 15006KT CAVOK 09/02 Q1020
  • 211845Z AUTO 17004KT CAVOK 08/03 Q1020

Expired Forecast.



MET'MAP, your aeronautical weather chart ! - Copyright ORBIFLY December 2007 - Disclaimer

ORBIFLY MET'MAP TEAM :

Programming & Development : Alexandra Zaïnal
Original concept : Baudouin d'Aumeries
Technical & hardware support : Manuel Goepfert
Assistance : Marc-Olivier Méhu




SOURCES & CREDITS :

   NOAA